Time;durP1;ratioP1;P1;durP2;ratioP2;P2;SDS_P1;SDS_P2;PMS_P1;PMS_P2;Temp;Humidity;BMP_temperature;BMP_pressure;BME280_temperature;BME280_humidity;BME280_pressure;Samples;Min_cycle;Max_cycle;Signal;HPM_P1;HPM_P2
2023/03/14 00:01:20;;;;;;;23.85;5.13;;;10.50;99.90;;;;;;5075869;28;20050;-73
2023/03/14 00:03:46;;;;;;;19.38;4.63;;;10.40;99.90;;;;;;5070353;28;20495;-72
2023/03/14 00:06:13;;;;;;;22.35;4.32;;;10.40;99.90;;;;;;5065028;28;20045;-73
2023/03/14 00:08:39;;;;;;;21.55;4.68;;;10.40;99.90;;;;;;5071048;28;20047;-73
2023/03/14 00:11:14;;;;;;;21.13;4.70;;;10.40;99.90;;;;;;5078407;28;20458;-73
2023/03/14 00:13:40;;;;;;;23.92;5.13;;;10.40;99.90;;;;;;5090067;28;20052;-74
2023/03/14 00:16:11;;;;;;;22.55;5.22;;;10.40;99.90;;;;;;5060969;28;20129;-73
2023/03/14 00:18:38;;;;;;;21.00;5.03;;;10.40;99.90;;;;;;5077685;28;20044;-74
2023/03/14 00:21:06;;;;;;;18.90;4.68;;;10.40;99.90;;;;;;5076487;28;20615;-74
2023/03/14 00:23:34;;;;;;;22.00;5.10;;;10.50;99.90;;;;;;5078147;28;20048;-73
2023/03/14 00:26:07;;;;;;;20.80;4.95;;;10.50;99.90;;;;;;5076107;28;20052;-74
2023/03/14 00:28:33;;;;;;;22.15;4.80;;;10.50;99.90;;;;;;5077729;28;20496;-73
2023/03/14 00:31:02;;;;;;;19.75;5.13;;;10.60;99.90;;;;;;5077868;28;20052;-74
2023/03/14 00:33:27;;;;;;;19.35;5.10;;;10.60;99.90;;;;;;5077392;28;20055;-73
2023/03/14 00:35:58;;;;;;;22.10;5.85;;;10.60;99.90;;;;;;5095375;28;20052;-74
2023/03/14 00:38:25;;;;;;;19.20;5.30;;;10.60;99.90;;;;;;5074010;28;20120;-74
2023/03/14 00:40:51;;;;;;;19.75;5.65;;;10.60;99.90;;;;;;5069929;28;20127;-75
2023/03/14 00:43:18;;;;;;;16.00;5.53;;;10.50;99.90;;;;;;5095383;28;20524;-75
2023/03/14 00:45:44;;;;;;;20.58;5.82;;;10.40;99.90;;;;;;5077209;28;20479;-75
2023/03/14 00:48:10;;;;;;;22.38;5.65;;;10.40;99.90;;;;;;5093861;28;20044;-75
2023/03/14 00:50:36;;;;;;;23.52;6.50;;;10.40;99.90;;;;;;5073927;28;20511;-75
2023/03/14 00:53:01;;;;;;;22.63;7.22;;;10.30;99.90;;;;;;5071528;28;20044;-74
2023/03/14 00:55:27;;;;;;;18.13;5.82;;;10.30;99.90;;;;;;5095318;28;20051;-76
2023/03/14 00:57:53;;;;;;;21.20;6.82;;;10.20;99.90;;;;;;5095012;28;20044;-76
2023/03/14 01:00:18;;;;;;;20.88;7.25;;;10.20;99.90;;;;;;5076078;28;20571;-76
2023/03/14 01:02:44;;;;;;;19.70;7.72;;;10.10;99.90;;;;;;5069029;28;20119;-76
2023/03/14 01:05:10;;;;;;;20.92;7.80;;;10.10;99.90;;;;;;5092895;28;20048;-77
2023/03/14 01:07:36;;;;;;;17.27;7.35;;;10.10;99.90;;;;;;5076411;28;20126;-79
2023/03/14 01:10:04;;;;;;;18.05;6.80;;;10.10;99.90;;;;;;5077308;28;20048;-78
2023/03/14 01:12:30;;;;;;;19.88;7.22;;;10.10;99.90;;;;;;5086120;28;20175;-79
2023/03/14 01:14:56;;;;;;;18.42;7.05;;;10.10;99.90;;;;;;5070684;28;20485;-80
2023/03/14 01:17:22;;;;;;;17.45;7.20;;;10.10;99.90;;;;;;5062533;28;20481;-81
2023/03/14 01:19:48;;;;;;;14.50;6.57;;;10.10;99.90;;;;;;5090426;28;20130;-79
2023/03/14 01:22:14;;;;;;;12.15;5.00;;;10.10;99.90;;;;;;5075982;28;20155;-77
2023/03/14 01:24:39;;;;;;;15.98;4.68;;;10.10;99.90;;;;;;5077126;28;20052;-79
2023/03/14 01:27:05;;;;;;;14.48;4.93;;;10.00;99.90;;;;;;5094515;28;20040;-77
2023/03/14 01:29:31;;;;;;;16.40;4.85;;;9.90;99.90;;;;;;5060337;28;20502;-79
2023/03/14 01:31:57;;;;;;;16.33;4.80;;;9.90;99.90;;;;;;5042557;28;20040;-78
2023/03/14 01:34:22;;;;;;;18.58;4.57;;;9.80;99.90;;;;;;5095017;28;20047;-77
2023/03/14 01:36:48;;;;;;;17.20;4.68;;;9.80;99.90;;;;;;5073983;28;20040;-78
2023/03/14 01:39:14;;;;;;;14.48;4.50;;;9.70;99.90;;;;;;5059731;28;20047;-77
2023/03/14 01:41:40;;;;;;;18.02;4.70;;;9.60;99.90;;;;;;5076325;28;20087;-77
2023/03/14 01:44:10;;;;;;;16.17;4.35;;;9.60;99.90;;;;;;5073047;28;20048;-79
2023/03/14 01:46:45;;;;;;;18.90;5.18;;;9.60;99.90;;;;;;5051344;28;20044;-77
2023/03/14 01:49:19;;;;;;;18.02;5.18;;;9.50;99.90;;;;;;5072514;28;20044;-79
2023/03/14 01:51:57;;;;;;;17.67;5.13;;;9.50;99.90;;;;;;5068045;28;20090;-78
2023/03/14 01:54:28;;;;;;;17.08;5.00;;;9.50;99.90;;;;;;5072952;28;20136;-77
2023/03/14 01:57:07;;;;;;;13.95;4.68;;;9.60;99.90;;;;;;5068630;28;20460;-77
2023/03/14 01:59:34;;;;;;;18.77;4.60;;;9.50;99.90;;;;;;5044879;28;20392;-78
2023/03/14 02:02:01;;;;;;;16.05;4.63;;;9.60;99.90;;;;;;5075644;28;20055;-78
2023/03/14 02:04:31;;;;;;;16.48;4.55;;;9.60;99.90;;;;;;5062639;28;20094;-81
2023/03/14 02:07:03;;;;;;;21.42;5.20;;;9.60;99.90;;;;;;5055565;28;20452;-81
2023/03/14 02:09:30;;;;;;;18.02;4.97;;;9.60;99.90;;;;;;5065885;28;20045;-79
2023/03/14 02:11:56;;;;;;;20.77;5.78;;;9.70;99.90;;;;;;5071468;28;20044;-79
2023/03/14 02:14:32;;;;;;;18.27;5.30;;;9.60;99.90;;;;;;5058534;28;20048;-77
2023/03/14 02:16:58;;;;;;;19.38;5.88;;;9.60;99.90;;;;;;5075181;28;20177;-79
2023/03/14 02:19:56;;;;;;;21.95;5.35;;;9.70;99.90;;;;;;5072821;28;20049;-78
2023/03/14 02:22:22;;;;;;;17.10;5.15;;;9.80;99.90;;;;;;5058437;28;20506;-79
2023/03/14 02:25:03;;;;;;;19.83;5.07;;;9.80;99.90;;;;;;5075402;28;20040;-79
2023/03/14 02:27:29;;;;;;;18.58;5.13;;;9.80;99.90;;;;;;5093382;28;20043;-74
2023/03/14 02:30:00;;;;;;;16.02;4.72;;;9.80;99.90;;;;;;5093583;28;20361;-79
2023/03/14 02:32:29;;;;;;;19.05;5.13;;;9.80;99.90;;;;;;5071525;28;20045;-79
2023/03/14 02:34:58;;;;;;;16.42;4.68;;;9.80;99.90;;;;;;5072085;28;20048;-79
2023/03/14 02:37:32;;;;;;;17.75;4.70;;;9.80;99.90;;;;;;5074537;28;20126;-79
2023/03/14 02:39:58;;;;;;;18.58;5.10;;;9.80;99.90;;;;;;5058521;28;20076;-79
2023/03/14 02:42:24;;;;;;;18.10;4.63;;;9.80;99.90;;;;;;5058756;28;20076;-79
2023/03/14 02:45:08;;;;;;;16.67;4.60;;;9.80;99.90;;;;;;5093288;28;20048;-78
2023/03/14 02:47:36;;;;;;;17.00;4.20;;;9.80;99.90;;;;;;5058033;28;20048;-75
2023/03/14 02:50:09;;;;;;;17.67;4.55;;;9.80;99.90;;;;;;5074890;28;20056;-76
2023/03/14 02:52:34;;;;;;;15.23;4.53;;;9.80;99.90;;;;;;5057921;28;20044;-78
2023/03/14 02:55:00;;;;;;;18.35;4.40;;;9.90;99.90;;;;;;5093318;28;20048;-78
2023/03/14 02:57:26;;;;;;;13.65;3.90;;;9.80;99.90;;;;;;5057310;28;20124;-75
2023/03/14 02:59:52;;;;;;;12.27;3.53;;;9.90;99.90;;;;;;5066886;28;20127;-79
2023/03/14 03:02:18;;;;;;;12.00;3.70;;;9.90;99.90;;;;;;5070876;28;20048;-77
2023/03/14 03:04:43;;;;;;;13.80;3.50;;;9.90;99.90;;;;;;5069660;28;20048;-76
2023/03/14 03:07:09;;;;;;;11.95;3.70;;;9.90;99.90;;;;;;5050592;28;20155;-77
2023/03/14 03:09:35;;;;;;;12.35;3.22;;;9.80;99.90;;;;;;5058448;28;20080;-76
2023/03/14 03:12:01;;;;;;;11.07;3.15;;;9.80;99.90;;;;;;5069889;28;20040;-78
2023/03/14 03:14:26;;;;;;;12.45;3.53;;;9.80;99.90;;;;;;5088728;28;20048;-76
2023/03/14 03:16:52;;;;;;;11.95;3.17;;;9.80;99.90;;;;;;5074069;28;20044;-78
2023/03/14 03:19:18;;;;;;;9.85;3.70;;;9.80;99.90;;;;;;5057556;28;20090;-76
2023/03/14 03:21:44;;;;;;;10.40;3.78;;;9.70;99.90;;;;;;5074103;28;20048;-78
2023/03/14 03:24:10;;;;;;;12.65;3.55;;;9.60;99.90;;;;;;5092963;28;20105;-78
2023/03/14 03:26:36;;;;;;;10.18;3.60;;;9.60;99.90;;;;;;5092521;28;20510;-76
2023/03/14 03:29:03;;;;;;;13.43;3.80;;;9.50;99.90;;;;;;5058592;28;20123;-78
2023/03/14 03:31:28;;;;;;;10.32;3.38;;;9.50;99.90;;;;;;5073610;28;20396;-78
2023/03/14 03:33:54;;;;;;;11.13;3.63;;;9.50;99.90;;;;;;5092632;28;20036;-76
2023/03/14 03:36:24;;;;;;;13.45;4.03;;;9.50;99.90;;;;;;5092230;28;20135;-76
2023/03/14 03:38:50;;;;;;;14.65;4.22;;;9.40;99.90;;;;;;5057832;28;20123;-78
2023/03/14 03:41:16;;;;;;;11.90;3.50;;;9.40;99.90;;;;;;5074951;28;20040;-77
2023/03/14 03:43:42;;;;;;;12.43;3.95;;;9.40;99.90;;;;;;5073781;28;20429;-76
2023/03/14 03:46:08;;;;;;;12.02;4.18;;;9.40;99.90;;;;;;5092466;28;20115;-76
2023/03/14 03:48:34;;;;;;;12.23;4.35;;;9.40;99.90;;;;;;5073925;28;20051;-77
2023/03/14 03:51:00;;;;;;;18.15;4.60;;;9.40;99.90;;;;;;5054284;28;20044;-76
2023/03/14 03:53:26;;;;;;;12.90;4.57;;;9.30;99.90;;;;;;5084464;28;20052;-76
2023/03/14 03:55:52;;;;;;;14.00;4.40;;;9.30;99.90;;;;;;5069764;28;20130;-76
2023/03/14 03:58:18;;;;;;;12.50;4.30;;;9.30;99.90;;;;;;5054378;28;20080;-77
2023/03/14 04:00:44;;;;;;;15.20;4.57;;;9.30;99.90;;;;;;5041418;28;20446;-76
2023/03/14 04:03:10;;;;;;;12.65;4.70;;;9.30;99.90;;;;;;5092051;28;20044;-77
2023/03/14 04:05:35;;;;;;;14.32;4.30;;;9.30;99.90;;;;;;5091907;28;20124;-77
2023/03/14 04:08:01;;;;;;;14.02;4.55;;;9.30;99.90;;;;;;5092010;28;20047;-78
2023/03/14 04:10:27;;;;;;;16.30;4.60;;;9.30;99.90;;;;;;5070776;28;20510;-76
2023/03/14 04:12:53;;;;;;;13.30;4.32;;;9.30;99.90;;;;;;5066089;28;20052;-77
2023/03/14 04:15:18;;;;;;;12.82;3.88;;;9.20;99.90;;;;;;5071217;28;20045;-78
2023/03/14 04:17:44;;;;;;;12.52;3.60;;;9.20;99.90;;;;;;5068845;28;20047;-76
2023/03/14 04:20:11;;;;;;;12.35;3.78;;;9.30;99.90;;;;;;5092078;28;20468;-77
2023/03/14 04:22:40;;;;;;;13.35;4.05;;;9.20;99.90;;;;;;5063133;28;20277;-78
2023/03/14 04:25:06;;;;;;;13.20;4.10;;;9.20;99.90;;;;;;5095673;28;20380;-76
2023/03/14 04:27:32;;;;;;;14.05;4.28;;;9.20;99.90;;;;;;5095593;28;20103;-77
2023/03/14 04:29:57;;;;;;;12.82;3.53;;;9.20;99.90;;;;;;5076423;28;20182;-74
2023/03/14 04:32:23;;;;;;;15.18;4.15;;;9.20;99.90;;;;;;5077315;28;20050;-78
2023/03/14 04:34:49;;;;;;;12.98;4.00;;;9.20;99.90;;;;;;5095504;28;20048;-78
2023/03/14 04:37:15;;;;;;;13.52;4.35;;;9.20;99.90;;;;;;5095273;28;20385;-77
2023/03/14 04:39:40;;;;;;;14.63;4.47;;;9.20;99.90;;;;;;5095818;28;20054;-80
2023/03/14 04:42:06;;;;;;;14.75;4.28;;;9.20;99.90;;;;;;5061716;28;20469;-78
2023/03/14 04:44:32;;;;;;;11.75;4.13;;;9.20;99.90;;;;;;5066073;28;20475;-77
2023/03/14 04:46:58;;;;;;;12.68;4.63;;;9.20;99.90;;;;;;5072215;28;20040;-76
2023/03/14 04:49:23;;;;;;;13.90;5.03;;;9.20;99.90;;;;;;5085345;28;20468;-78
2023/03/14 04:51:52;;;;;;;12.25;4.65;;;9.20;99.90;;;;;;5075171;28;20499;-76
2023/03/14 04:54:18;;;;;;;14.60;5.22;;;9.20;99.90;;;;;;5074137;28;20374;-78
2023/03/14 04:56:44;;;;;;;14.55;5.70;;;9.10;99.90;;;;;;5053171;28;20142;-78
2023/03/14 04:59:09;;;;;;;11.10;5.47;;;9.10;99.90;;;;;;5076944;28;20534;-76
2023/03/14 05:01:36;;;;;;;13.82;6.07;;;9.10;99.90;;;;;;5049670;28;20071;-77
2023/03/14 05:04:01;;;;;;;14.85;5.47;;;9.10;99.90;;;;;;5074372;28;20079;-77
2023/03/14 05:06:27;;;;;;;13.55;6.35;;;9.20;99.90;;;;;;5073440;28;20464;-78
2023/03/14 05:08:53;;;;;;;16.67;6.25;;;9.10;99.90;;;;;;5055417;28;20059;-78
2023/03/14 05:11:18;;;;;;;13.23;5.88;;;9.10;99.90;;;;;;5094623;28;20123;-78
2023/03/14 05:13:44;;;;;;;13.73;5.95;;;9.10;99.90;;;;;;5076802;28;20051;-77
2023/03/14 05:16:11;;;;;;;11.70;5.70;;;9.10;99.90;;;;;;5076142;28;20127;-78
2023/03/14 05:18:37;;;;;;;12.93;5.50;;;9.10;99.90;;;;;;5073261;28;20040;-76
2023/03/14 05:21:03;;;;;;;17.08;6.60;;;9.10;99.90;;;;;;5070483;28;20123;-77
2023/03/14 05:23:29;;;;;;;13.90;5.60;;;9.10;99.90;;;;;;5076715;28;20040;-76
2023/03/14 05:25:55;;;;;;;11.07;4.97;;;9.00;99.90;;;;;;5076883;28;20052;-76
2023/03/14 05:28:21;;;;;;;11.15;4.95;;;9.00;99.90;;;;;;5094105;28;20040;-77
2023/03/14 05:30:46;;;;;;;13.63;5.25;;;9.00;99.90;;;;;;5073536;28;20499;-78
2023/03/14 05:33:12;;;;;;;11.40;4.32;;;8.90;99.90;;;;;;5090145;28;20054;-78
2023/03/14 05:35:38;;;;;;;12.77;5.05;;;9.00;99.90;;;;;;5069527;28;20502;-77
2023/03/14 05:38:04;;;;;;;12.32;5.10;;;9.00;99.90;;;;;;5085935;28;20075;-77
2023/03/14 05:40:29;;;;;;;12.93;5.40;;;9.00;99.90;;;;;;5068202;28;20044;-76
2023/03/14 05:42:55;;;;;;;16.00;5.18;;;9.00;99.90;;;;;;5052843;28;20052;-75
2023/03/14 05:45:21;;;;;;;13.85;4.80;;;9.00;99.90;;;;;;5083763;28;20041;-78
2023/03/14 05:47:46;;;;;;;12.63;5.00;;;9.00;99.90;;;;;;5072200;28;20106;-78
2023/03/14 05:50:12;;;;;;;14.15;5.47;;;9.00;99.90;;;;;;5069415;28;20098;-76
2023/03/14 05:52:38;;;;;;;14.68;5.18;;;9.00;99.90;;;;;;5090893;28;20131;-77
2023/03/14 05:55:04;;;;;;;12.60;5.30;;;9.00;99.90;;;;;;5069580;28;20055;-76
2023/03/14 05:57:30;;;;;;;13.73;5.13;;;9.00;99.90;;;;;;5066545;28;20053;-77
2023/03/14 05:59:56;;;;;;;12.32;4.82;;;9.10;99.90;;;;;;5052115;28;20485;-77
2023/03/14 06:02:21;;;;;;;14.20;4.55;;;9.00;99.90;;;;;;5082502;28;20092;-77
2023/03/14 06:04:47;;;;;;;15.30;4.53;;;9.00;99.90;;;;;;5074505;28;20396;-77
2023/03/14 06:07:13;;;;;;;16.88;4.88;;;9.10;99.90;;;;;;5070514;28;20048;-79
2023/03/14 06:09:39;;;;;;;15.88;4.78;;;9.10;99.90;;;;;;5058776;28;20059;-78
2023/03/14 06:12:05;;;;;;;18.45;5.10;;;9.00;99.90;;;;;;5063374;28;20113;-79
2023/03/14 06:14:31;;;;;;;16.10;4.55;;;9.00;99.90;;;;;;5070886;28;20052;-77
2023/03/14 06:16:58;;;;;;;15.32;4.68;;;9.00;99.90;;;;;;5071287;28;20503;-78
2023/03/14 06:19:25;;;;;;;15.77;4.70;;;9.00;99.90;;;;;;5071938;28;20078;-77
2023/03/14 06:21:51;;;;;;;15.00;4.78;;;9.00;99.90;;;;;;5052066;28;20045;-77
2023/03/14 06:24:17;;;;;;;17.25;4.95;;;9.00;99.90;;;;;;5082605;28;20052;-79
2023/03/14 06:26:43;;;;;;;17.25;4.90;;;9.10;99.90;;;;;;5068810;28;20119;-76
2023/03/14 06:29:09;;;;;;;14.45;4.97;;;9.00;99.90;;;;;;5084641;28;20048;-78
2023/03/14 06:31:35;;;;;;;16.98;5.32;;;9.00;99.90;;;;;;5069247;28;20048;-78
2023/03/14 06:34:01;;;;;;;12.60;4.97;;;9.00;99.90;;;;;;5055389;28;20037;-79
2023/03/14 06:36:26;;;;;;;15.65;4.78;;;9.00;99.90;;;;;;5055962;28;20059;-76
2023/03/14 06:38:52;;;;;;;15.57;4.78;;;9.10;99.90;;;;;;5075452;28;20054;-78
2023/03/14 06:41:18;;;;;;;14.93;5.07;;;9.10;99.90;;;;;;5057262;28;20123;-79
2023/03/14 06:43:44;;;;;;;15.23;5.32;;;9.10;99.90;;;;;;5054526;28;20070;-78
2023/03/14 06:46:10;;;;;;;14.85;5.00;;;9.10;99.90;;;;;;5092108;28;20043;-78
2023/03/14 06:48:36;;;;;;;16.95;5.60;;;9.10;99.90;;;;;;5071531;28;20052;-77
2023/03/14 06:51:01;;;;;;;15.13;5.70;;;9.10;99.90;;;;;;5071066;28;20131;-78
2023/03/14 06:53:27;;;;;;;18.48;6.20;;;9.10;99.90;;;;;;5070055;28;20076;-79
2023/03/14 06:55:53;;;;;;;17.65;6.07;;;9.10;99.90;;;;;;5092996;28;20127;-78
2023/03/14 06:58:19;;;;;;;12.80;5.70;;;9.10;99.90;;;;;;5072371;28;20468;-77
2023/03/14 07:00:44;;;;;;;13.65;5.57;;;9.10;99.90;;;;;;5091915;28;20123;-79
2023/03/14 07:03:11;;;;;;;13.10;5.20;;;9.10;99.90;;;;;;5070992;28;20048;-78
2023/03/14 07:05:40;;;;;;;15.65;5.63;;;9.20;99.90;;;;;;5057725;28;20056;-81
2023/03/14 07:08:06;;;;;;;12.98;4.65;;;9.20;99.90;;;;;;5092757;28;20047;-79
2023/03/14 07:10:33;;;;;;;12.05;4.05;;;9.20;99.90;;;;;;5069852;28;20051;-79
2023/03/14 07:12:59;;;;;;;10.48;3.92;;;9.30;99.90;;;;;;5074442;28;20047;-80
2023/03/14 07:15:25;;;;;;;12.40;4.43;;;9.30;99.90;;;;;;5093156;28;20047;-78
2023/03/14 07:17:50;;;;;;;10.80;4.25;;;9.30;99.90;;;;;;5069436;28;20153;-76
2023/03/14 07:20:16;;;;;;;12.45;4.78;;;9.30;99.90;;;;;;5057698;28;20060;-77
2023/03/14 07:22:42;;;;;;;13.25;4.75;;;9.30;99.90;;;;;;5092501;28;20058;-76
2023/03/14 07:25:11;;;;;;;10.23;4.60;;;9.40;99.90;;;;;;5060906;28;20052;-78
2023/03/14 07:27:38;;;;;;;15.20;5.47;;;9.30;99.90;;;;;;5074768;28;20522;-81
2023/03/14 07:30:04;;;;;;;12.02;5.60;;;9.40;99.90;;;;;;5071119;28;20504;-81
2023/03/14 07:32:30;;;;;;;13.95;5.63;;;9.40;99.90;;;;;;5064589;28;20079;-78
2023/03/14 07:34:56;;;;;;;14.30;5.95;;;9.30;99.90;;;;;;5073558;28;20129;-79
2023/03/14 07:37:21;;;;;;;12.98;5.63;;;9.30;99.90;;;;;;5092213;28;20048;-79
2023/03/14 07:39:47;;;;;;;15.05;6.13;;;9.20;99.90;;;;;;5054695;28;20051;-79
2023/03/14 07:42:13;;;;;;;11.38;3.83;;;9.30;99.90;;;;;;5074064;28;20388;-75
2023/03/14 07:44:39;;;;;;;7.80;2.80;;;9.30;99.90;;;;;;5071564;28;20059;-79
2023/03/14 07:47:04;;;;;;;6.28;2.00;;;9.20;99.90;;;;;;5052032;28;20369;-79
2023/03/14 07:49:30;;;;;;;4.20;1.10;;;9.00;99.90;;;;;;5065339;28;20105;-78
2023/03/14 07:51:56;;;;;;;5.63;1.10;;;8.60;99.90;;;;;;5073622;28;20080;-78
2023/03/14 07:54:22;;;;;;;5.00;1.27;;;8.30;99.90;;;;;;5037777;28;20059;-78
2023/03/14 07:56:48;;;;;;;5.38;1.05;;;8.00;99.90;;;;;;5076842;28;20108;-79
2023/03/14 07:59:14;;;;;;;4.72;1.00;;;7.70;99.90;;;;;;5061523;28;20044;-78
2023/03/14 08:01:39;;;;;;;7.32;1.25;;;7.50;99.90;;;;;;5061345;28;20511;-79
2023/03/14 08:04:05;;;;;;;6.80;1.10;;;7.20;99.90;;;;;;5077999;28;20506;-77
2023/03/14 08:06:31;;;;;;;4.18;0.90;;;6.90;99.90;;;;;;5067190;28;20040;-77
2023/03/14 08:08:56;;;;;;;8.20;1.20;;;6.60;99.90;;;;;;5078582;28;20060;-76
2023/03/14 08:11:22;;;;;;;8.73;1.10;;;6.30;99.90;;;;;;5078004;28;20123;-77
2023/03/14 08:13:49;;;;;;;5.32;1.20;;;6.10;99.90;;;;;;5078022;28;20070;-78
2023/03/14 08:16:19;;;;;;;7.47;1.23;;;6.00;99.90;;;;;;5077706;28;20052;-76
2023/03/14 08:18:45;;;;;;;8.50;1.30;;;5.80;99.90;;;;;;5095686;28;20048;-78
2023/03/14 08:21:12;;;;;;;6.30;1.00;;;5.70;99.90;;;;;;5074993;28;20060;-74
2023/03/14 08:23:38;;;;;;;4.63;0.88;;;5.60;99.90;;;;;;5096087;28;20064;-74
2023/03/14 08:26:03;;;;;;;8.25;1.00;;;5.50;99.90;;;;;;5077779;28;20604;-75
2023/03/14 08:28:32;;;;;;;9.15;1.10;;;5.30;99.90;;;;;;5055204;28;20068;-75
2023/03/14 08:30:58;;;;;;;2.83;0.73;;;5.30;99.90;;;;;;5087764;28;20052;-76
2023/03/14 08:33:24;;;;;;;3.55;0.75;;;5.20;99.90;;;;;;5072985;28;20063;-76
2023/03/14 08:35:55;;;;;;;5.03;0.90;;;5.20;99.90;;;;;;5057142;28;20048;-76
2023/03/14 08:38:20;;;;;;;5.53;0.70;;;5.10;99.90;;;;;;5057328;28;20059;-75
2023/03/14 08:40:46;;;;;;;3.70;0.68;;;5.00;99.90;;;;;;5095891;28;20048;-76
2023/03/14 08:43:12;;;;;;;2.97;0.60;;;5.00;99.90;;;;;;5076919;28;20480;-78
2023/03/14 08:45:38;;;;;;;2.70;0.70;;;5.00;99.90;;;;;;5074465;28;20063;-77
2023/03/14 08:48:04;;;;;;;3.00;0.68;;;5.00;99.90;;;;;;5087790;28;20114;-75
2023/03/14 08:50:30;;;;;;;3.95;0.80;;;4.90;99.90;;;;;;5076207;28;20051;-76
2023/03/14 08:52:59;;;;;;;3.55;0.88;;;4.90;99.90;;;;;;5060563;28;20048;-75
2023/03/14 08:55:27;;;;;;;4.25;0.70;;;4.80;99.90;;;;;;5077095;28;20055;-78
2023/03/14 08:57:53;;;;;;;4.60;0.80;;;4.80;99.90;;;;;;5073882;28;20480;-74
2023/03/14 09:00:19;;;;;;;4.50;0.85;;;4.90;99.90;;;;;;5090419;28;20064;-74
2023/03/14 09:02:45;;;;;;;2.42;0.70;;;4.90;99.90;;;;;;5076993;28;20484;-75
2023/03/14 09:05:12;;;;;;;3.05;0.70;;;4.90;99.90;;;;;;5073774;28;20178;-75
2023/03/14 09:07:38;;;;;;;5.82;0.90;;;5.00;99.90;;;;;;5079007;28;20052;-75
2023/03/14 09:10:05;;;;;;;3.42;0.73;;;5.10;99.90;;;;;;5073489;28;20508;-75
2023/03/14 09:12:31;;;;;;;5.70;1.00;;;5.10;99.90;;;;;;5065385;28;20052;-76
2023/03/14 09:14:57;;;;;;;4.20;0.90;;;5.00;99.90;;;;;;5077417;28;20117;-75
2023/03/14 09:17:22;;;;;;;5.95;1.00;;;5.10;99.90;;;;;;5086251;28;20048;-76
2023/03/14 09:19:48;;;;;;;5.25;0.82;;;5.10;99.90;;;;;;5073971;28;20044;-75
2023/03/14 09:22:14;;;;;;;6.38;1.02;;;5.10;99.90;;;;;;5094656;28;20377;-76
2023/03/14 09:24:41;;;;;;;7.75;1.00;;;5.10;99.90;;;;;;5076283;28;20059;-76
2023/03/14 09:27:07;;;;;;;7.65;1.20;;;5.20;99.90;;;;;;5076546;28;20523;-76
2023/03/14 09:29:33;;;;;;;7.57;1.17;;;5.30;99.90;;;;;;5073619;28;20146;-76
2023/03/14 09:31:59;;;;;;;7.15;1.20;;;5.30;99.90;;;;;;5093861;28;20102;-77
2023/03/14 09:34:24;;;;;;;7.15;1.00;;;5.40;99.90;;;;;;5076910;28;20372;-76
2023/03/14 09:36:50;;;;;;;7.47;1.10;;;5.40;99.90;;;;;;5075780;28;20055;-76
2023/03/14 09:39:16;;;;;;;8.52;1.42;;;5.50;99.90;;;;;;5094278;28;20051;-77
2023/03/14 09:41:54;;;;;;;7.28;1.30;;;5.50;99.90;;;;;;5059537;28;20055;-76
2023/03/14 09:44:22;;;;;;;6.68;1.35;;;5.70;99.90;;;;;;5073531;28;20056;-76
2023/03/14 09:46:51;;;;;;;10.82;1.60;;;5.80;99.90;;;;;;5089532;28;20112;-76
2023/03/14 09:49:56;;;;;;;12.10;2.00;;;5.90;99.90;;;;;;5073474;28;20063;-77
2023/03/14 09:52:34;;;;;;;12.13;1.95;;;6.10;99.90;;;;;;5011059;28;20048;-76
2023/03/14 09:55:04;;;;;;;10.77;2.05;;;6.20;99.90;;;;;;4982153;28;20052;-76
2023/03/14 09:57:34;;;;;;;11.60;2.28;;;6.20;99.90;;;;;;5036779;28;20060;-77
2023/03/14 10:00:26;;;;;;;12.35;2.17;;;6.30;99.90;;;;;;5063206;28;20040;-76
2023/03/14 10:03:26;;;;;;;15.48;2.70;;;6.40;99.90;;;;;;5064046;28;20050;-76
2023/03/14 10:05:52;;;;;;;17.35;2.90;;;6.40;99.90;;;;;;5046129;28;20060;-76
2023/03/14 10:08:18;;;;;;;13.90;2.58;;;6.40;99.90;;;;;;5076156;28;20408;-76
2023/03/14 10:10:43;;;;;;;19.27;3.15;;;6.50;99.90;;;;;;5072196;28;20036;-76
2023/03/14 10:13:19;;;;;;;16.90;2.70;;;6.50;99.90;;;;;;5083997;28;20553;-77
2023/03/14 10:15:57;;;;;;;16.40;2.55;;;6.50;99.90;;;;;;5072756;28;20057;-75
2023/03/14 10:18:23;;;;;;;16.83;3.00;;;6.40;99.90;;;;;;5071564;28;20507;-77
2023/03/14 10:21:02;;;;;;;16.73;2.75;;;6.40;99.90;;;;;;5063443;28;20060;-75
2023/03/14 10:23:30;;;;;;;19.48;3.17;;;6.40;99.90;;;;;;5075331;28;20067;-75
2023/03/14 10:26:02;;;;;;;13.52;2.65;;;6.30;99.90;;;;;;5075985;28;20059;-76
2023/03/14 10:28:31;;;;;;;18.48;2.90;;;6.30;99.90;;;;;;5074933;28;20048;-76
2023/03/14 10:30:57;;;;;;;15.38;2.72;;;6.30;99.90;;;;;;5075835;28;20048;-76
2023/03/14 10:33:27;;;;;;;19.13;3.17;;;6.20;99.90;;;;;;5074392;28;20043;-76
2023/03/14 10:36:05;;;;;;;20.75;3.08;;;6.20;99.90;;;;;;5071635;28;20048;-76
2023/03/14 10:38:33;;;;;;;21.15;3.10;;;6.30;99.90;;;;;;5091278;28;20048;-75
2023/03/14 10:41:00;;;;;;;21.40;3.33;;;6.40;99.90;;;;;;5071969;28;20052;-77
2023/03/14 10:43:32;;;;;;;16.67;3.00;;;6.40;99.90;;;;;;5071530;28;20075;-75
2023/03/14 10:46:12;;;;;;;19.95;3.50;;;6.50;99.90;;;;;;5072121;28;20080;-77
2023/03/14 10:48:41;;;;;;;16.40;3.28;;;6.60;99.90;;;;;;5071615;28;20052;-76
2023/03/14 10:51:16;;;;;;;18.50;3.30;;;6.70;99.90;;;;;;5054781;28;20045;-77
2023/03/14 10:53:49;;;;;;;17.95;3.30;;;6.80;99.90;;;;;;5089851;28;20044;-75
2023/03/14 10:56:20;;;;;;;21.52;3.25;;;6.70;99.90;;;;;;5092945;28;20404;-76
2023/03/14 10:58:50;;;;;;;20.80;3.70;;;6.60;99.90;;;;;;5074600;28;20048;-75
2023/03/14 11:01:46;;;;;;;17.02;3.60;;;6.60;99.90;;;;;;5049141;28;20047;-75
2023/03/14 11:04:25;;;;;;;18.60;3.42;;;6.60;99.90;;;;;;5074398;28;20502;-75
2023/03/14 11:07:23;;;;;;;19.58;3.33;;;6.60;99.90;;;;;;5092197;28;20048;-76
2023/03/14 11:09:54;;;;;;;19.15;3.35;;;6.60;99.90;;;;;;5063566;28;20052;-76
2023/03/14 11:12:44;;;;;;;20.65;3.70;;;6.60;99.90;;;;;;5071256;28;20123;-75
2023/03/14 11:15:32;;;;;;;18.17;2.95;;;6.60;99.90;;;;;;5062980;28;20142;-75
2023/03/14 11:18:00;;;;;;;20.15;3.70;;;6.80;99.90;;;;;;5073528;28;20135;-76
2023/03/14 11:20:52;;;;;;;17.25;3.17;;;6.80;99.90;;;;;;5073512;28;20056;-75
2023/03/14 11:23:33;;;;;;;16.02;3.05;;;6.90;99.90;;;;;;5074462;28;20115;-75
2023/03/14 11:26:05;;;;;;;13.07;2.80;;;6.80;99.90;;;;;;5092742;28;20059;-75
2023/03/14 11:28:42;;;;;;;17.00;3.00;;;6.80;99.90;;;;;;5057563;28;20181;-74
2023/03/14 11:31:23;;;;;;;15.25;2.60;;;6.80;99.90;;;;;;5071466;28;20056;-75
2023/03/14 11:34:15;;;;;;;13.35;2.40;;;6.80;99.90;;;;;;5050816;28;20051;-74
2023/03/14 11:36:46;;;;;;;17.58;2.80;;;6.90;99.90;;;;;;5067111;28;20056;-75
2023/03/14 11:39:15;;;;;;;16.70;2.75;;;6.90;99.90;;;;;;5061363;28;20045;-74
2023/03/14 11:41:45;;;;;;;12.85;2.42;;;7.00;99.90;;;;;;5068241;28;20092;-74
2023/03/14 11:44:24;;;;;;;16.02;2.90;;;7.00;99.90;;;;;;5037808;28;20048;-75
2023/03/14 11:47:06;;;;;;;11.18;2.38;;;7.00;99.90;;;;;;5056346;28;20048;-75
2023/03/14 11:49:46;;;;;;;14.85;2.30;;;7.00;99.90;;;;;;5092781;28;20442;-75
2023/03/14 11:52:24;;;;;;;12.15;2.05;;;7.00;99.90;;;;;;5068936;28;20045;-74
2023/03/14 11:55:16;;;;;;;10.70;2.40;;;7.00;99.90;;;;;;5067139;28;20054;-76
2023/03/14 11:57:43;;;;;;;10.73;2.20;;;7.10;99.90;;;;;;5074469;28;20359;-75
2023/03/14 12:00:19;;;;;;;12.00;2.05;;;7.30;99.90;;;;;;5073912;28;20047;-74
2023/03/14 12:03:04;;;;;;;12.40;2.28;;;7.50;99.90;;;;;;5057323;28;20048;-74
2023/03/14 12:06:06;;;;;;;12.85;1.95;;;7.70;99.90;;;;;;5072352;28;20044;-73
2023/03/14 12:08:47;;;;;;;12.00;2.13;;;7.80;99.20;;;;;;5054428;28;20131;-74
2023/03/14 12:11:22;;;;;;;11.13;2.03;;;7.70;96.00;;;;;;5070419;28;20545;-74
2023/03/14 12:13:51;;;;;;;12.13;1.90;;;7.40;96.10;;;;;;5065124;28;20052;-74
2023/03/14 12:16:22;;;;;;;12.05;2.03;;;7.20;97.70;;;;;;5073788;28;20515;-73
2023/03/14 12:18:50;;;;;;;11.50;2.08;;;7.20;98.80;;;;;;5074410;28;20048;-74
2023/03/14 12:21:16;;;;;;;8.30;1.60;;;7.30;97.20;;;;;;5049759;28;20065;-74
2023/03/14 12:23:50;;;;;;;10.65;2.00;;;7.20;93.80;;;;;;5050534;28;20064;-72
2023/03/14 12:26:23;;;;;;;10.45;2.30;;;7.20;92.70;;;;;;5034828;28;20053;-74
2023/03/14 12:28:53;;;;;;;13.15;1.67;;;7.30;94.10;;;;;;5070505;28;20384;-75
2023/03/14 12:31:29;;;;;;;10.52;1.92;;;7.50;93.30;;;;;;5053334;28;20044;-74
2023/03/14 12:34:21;;;;;;;8.27;1.70;;;7.50;94.20;;;;;;5070960;28;20129;-74
2023/03/14 12:36:49;;;;;;;10.13;1.67;;;7.40;90.90;;;;;;5052070;28;20129;-74
2023/03/14 12:39:33;;;;;;;7.97;1.58;;;7.30;91.60;;;;;;5067730;28;20500;-74
2023/03/14 12:42:36;;;;;;;10.00;1.67;;;7.40;93.40;;;;;;5069694;28;20488;-74
2023/03/14 12:45:25;;;;;;;9.35;1.95;;;7.50;92.80;;;;;;5073972;28;20044;-73
2023/03/14 12:48:06;;;;;;;8.77;1.60;;;7.70;90.00;;;;;;5073500;28;20076;-74
2023/03/14 12:50:37;;;;;;;7.35;1.60;;;7.60;90.30;;;;;;5073544;28;20117;-74
2023/03/14 12:53:27;;;;;;;7.28;1.67;;;7.60;91.70;;;;;;5062411;28;20045;-74
2023/03/14 12:56:08;;;;;;;9.40;1.60;;;7.60;90.70;;;;;;5074442;28;20153;-73
2023/03/14 12:58:37;;;;;;;6.07;1.60;;;7.60;87.30;;;;;;5073478;28;20048;-73